createdAt,value
2023-02-01T00:03:08.404Z,13.36
2023-02-01T00:08:14.467Z,13.69
2023-02-01T00:13:20.695Z,14.21
2023-02-01T00:18:26.771Z,11.53
2023-02-01T00:23:32.953Z,13.63
2023-02-01T00:28:39.011Z,15.01
2023-02-01T00:33:45.162Z,12.97
2023-02-01T00:38:51.269Z,12.66
2023-02-01T00:43:57.489Z,13.02
2023-02-01T00:49:03.550Z,11.50
2023-02-01T00:54:09.750Z,11.78
2023-02-01T00:59:15.937Z,12.94
2023-02-01T01:04:22.113Z,11.82
2023-02-01T01:09:28.171Z,13.33
2023-02-01T01:14:34.369Z,10.63
2023-02-01T01:19:40.445Z,11.61
2023-02-01T01:24:46.623Z,15.21
2023-02-01T01:29:52.704Z,12.33
2023-02-01T01:34:58.936Z,13.25
2023-02-01T01:40:05.077Z,15.56
2023-02-01T01:45:11.250Z,11.12
2023-02-01T01:50:17.332Z,13.45
2023-02-01T01:55:23.493Z,14.98
2023-02-01T02:00:29.587Z,12.51
2023-02-01T02:05:35.904Z,13.76
2023-02-01T02:10:41.954Z,13.61
2023-02-01T02:15:48.199Z,12.08
2023-02-01T02:20:54.317Z,12.74
2023-02-01T02:26:00.578Z,13.41
2023-02-01T02:31:06.678Z,11.08
2023-02-01T02:36:12.825Z,13.62
2023-02-01T02:41:18.957Z,9.74
2023-02-01T02:46:25.159Z,14.69
2023-02-01T02:51:31.314Z,10.77
2023-02-01T02:56:37.446Z,12.72
2023-02-01T03:01:43.566Z,11.67
2023-02-01T03:06:49.691Z,13.81
2023-02-01T03:11:55.748Z,13.13
2023-02-01T03:17:01.932Z,9.20
2023-02-01T03:22:08.103Z,9.99
2023-02-01T03:27:14.443Z,9.98
2023-02-01T03:32:20.490Z,9.53
2023-02-01T03:37:26.765Z,10.55
2023-02-01T03:42:33.242Z,9.67
2023-02-01T03:47:39.465Z,8.07
2023-02-01T03:52:45.546Z,10.42
2023-02-01T03:57:51.820Z,9.92
2023-02-01T04:03:16.269Z,13.91
2023-02-01T04:08:22.573Z,12.16
2023-02-01T04:13:28.744Z,11.87
2023-02-01T04:18:34.885Z,11.34
2023-02-01T04:23:41.054Z,12.37
2023-02-01T04:28:47.279Z,13.02
2023-02-01T04:33:53.449Z,13.70
2023-02-01T04:38:59.698Z,13.09
2023-02-01T04:44:05.784Z,10.58
2023-02-01T04:49:12.013Z,13.57
2023-02-01T04:54:18.202Z,12.29
2023-02-01T04:59:24.505Z,11.56
2023-02-01T05:04:31.039Z,8.04
2023-02-01T05:09:37.120Z,10.12
2023-02-01T05:14:43.170Z,8.33
2023-02-01T05:19:49.448Z,7.81
2023-02-01T05:24:55.585Z,6.47
2023-02-01T05:30:01.810Z,10.83
2023-02-01T05:35:07.885Z,8.73
2023-02-01T05:40:14.278Z,10.53
2023-02-01T05:45:20.477Z,11.16
2023-02-01T05:50:26.646Z,10.07
2023-02-01T05:55:32.755Z,10.38
2023-02-01T06:00:39.003Z,11.89
2023-02-01T06:05:45.138Z,11.90
2023-02-01T06:10:51.355Z,9.55
2023-02-01T06:15:57.441Z,10.13
2023-02-01T06:21:03.744Z,10.25
2023-02-01T06:26:09.830Z,9.48
2023-02-01T06:31:16.066Z,7.68
2023-02-01T06:36:22.120Z,8.56
2023-02-01T06:41:29.425Z,10.42
2023-02-01T06:46:34.083Z,14.47
2023-02-01T06:51:40.256Z,10.53
2023-02-01T06:56:46.383Z,10.87
2023-02-01T07:01:52.623Z,13.25
2023-02-01T07:06:59.484Z,10.46
2023-02-01T07:12:05.684Z,12.38
2023-02-01T07:17:11.762Z,11.83
2023-02-01T07:22:17.937Z,13.04
2023-02-01T07:27:24.065Z,11.02
2023-02-01T07:32:30.322Z,11.08
2023-02-01T07:37:36.373Z,12.01
2023-02-01T07:42:42.658Z,13.12
2023-02-01T07:47:48.712Z,12.25
2023-02-01T07:52:54.889Z,10.31
2023-02-01T07:58:00.981Z,9.62
2023-02-01T08:03:07.171Z,11.11
2023-02-01T08:08:13.259Z,11.67
2023-02-01T08:13:19.541Z,10.36
2023-02-01T08:18:25.623Z,9.85
2023-02-01T08:23:31.792Z,13.86
2023-02-01T08:28:38.112Z,10.72
2023-02-01T08:33:44.179Z,11.44
2023-02-01T08:38:50.271Z,12.58
2023-02-01T08:43:56.495Z,12.03
2023-02-01T08:49:02.556Z,10.44
2023-02-01T08:54:08.740Z,12.93
2023-02-01T08:59:14.798Z,12.07
2023-02-01T09:04:20.996Z,10.86
2023-02-01T09:09:27.027Z,12.96
2023-02-01T09:14:33.255Z,10.41
2023-02-01T09:19:40.543Z,11.35
2023-02-01T09:24:45.114Z,13.11
2023-02-01T09:29:51.132Z,10.65
2023-02-01T09:34:57.301Z,13.14
2023-02-01T09:40:03.368Z,11.36
2023-02-01T09:45:09.507Z,10.24
2023-02-01T09:50:15.583Z,10.26
2023-02-01T09:55:21.741Z,12.01
2023-02-01T10:00:27.857Z,11.23
2023-02-01T10:05:33.989Z,10.24
2023-02-01T10:10:40.059Z,12.40
2023-02-01T10:15:46.374Z,14.61
2023-02-01T10:20:52.474Z,12.47
2023-02-01T10:25:58.666Z,11.22
2023-02-01T10:31:04.785Z,11.18
2023-02-01T10:36:11.112Z,11.64
2023-02-01T10:41:17.188Z,10.10
2023-02-01T10:46:23.347Z,13.70
2023-02-01T10:51:29.445Z,9.06
2023-02-01T10:56:35.706Z,8.29
2023-02-01T11:01:41.883Z,8.20
2023-02-01T11:06:47.974Z,8.97
2023-02-01T11:11:54.066Z,9.61
2023-02-01T11:17:00.212Z,7.27
2023-02-01T11:22:06.308Z,6.46
2023-02-01T11:27:16.049Z,5.23
2023-02-01T11:32:18.092Z,5.99
2023-02-01T11:37:24.304Z,6.59
2023-02-01T11:42:30.380Z,6.77
2023-02-01T11:47:36.570Z,6.20
2023-02-01T11:52:42.653Z,6.26
2023-02-01T11:57:48.798Z,4.96
2023-02-01T12:02:54.980Z,1.99
2023-02-01T12:08:01.107Z,1.18
2023-02-01T12:13:07.169Z,1.08
2023-02-01T12:18:13.332Z,1.64
2023-02-01T12:23:19.497Z,0.88
2023-02-01T12:28:25.736Z,1.00
2023-02-01T12:33:31.872Z,1.13
2023-02-01T12:38:38.086Z,1.62
2023-02-01T12:43:44.178Z,2.16
2023-02-01T12:48:50.348Z,1.67
2023-02-01T12:53:56.475Z,1.80
2023-02-01T12:59:02.589Z,2.42
2023-02-01T13:04:08.766Z,2.49
2023-02-01T13:09:14.904Z,2.66
2023-02-01T13:14:20.989Z,2.02
2023-02-01T13:19:27.187Z,3.51
2023-02-01T13:24:33.283Z,1.69
2023-02-01T13:29:39.448Z,3.36
2023-02-01T13:34:45.666Z,2.04
2023-02-01T13:39:51.832Z,4.84
2023-02-01T13:44:58.033Z,5.28
2023-02-01T13:50:04.130Z,6.74
2023-02-01T13:55:10.281Z,5.29
2023-02-01T14:00:17.292Z,6.75
2023-02-01T14:05:23.730Z,6.47
2023-02-01T14:10:29.118Z,6.23
2023-02-01T14:15:35.271Z,7.51
2023-02-01T14:20:41.432Z,8.85
2023-02-01T14:25:47.607Z,10.70
2023-02-01T14:30:53.804Z,8.94
2023-02-01T14:35:59.806Z,14.52
2023-02-01T14:41:05.936Z,14.43
2023-02-01T14:46:12.046Z,13.52
2023-02-01T14:52:08.000Z,14.61
2023-02-01T14:57:14.063Z,13.35
2023-02-01T15:02:20.299Z,9.32
2023-02-01T15:07:26.399Z,13.57
2023-02-01T15:12:32.579Z,13.47
2023-02-01T15:17:38.596Z,12.03
2023-02-01T15:22:44.844Z,11.44
2023-02-01T15:27:50.921Z,10.38
2023-02-01T15:32:57.303Z,9.80
2023-02-01T15:38:03.390Z,11.10
2023-02-01T15:43:09.608Z,10.08
2023-02-01T15:48:15.829Z,13.37
2023-02-01T15:53:22.088Z,7.59
2023-02-01T15:58:28.152Z,5.73
2023-02-01T16:03:34.344Z,8.82
2023-02-01T16:08:40.515Z,4.62
2023-02-01T16:13:46.696Z,5.07
2023-02-01T16:18:52.826Z,6.61
2023-02-01T16:23:59.009Z,7.93
2023-02-01T16:29:05.132Z,7.75
2023-02-01T16:34:11.459Z,10.00
2023-02-01T16:39:17.568Z,10.02
2023-02-01T16:44:23.866Z,13.14
2023-02-01T16:49:30.108Z,16.02
2023-02-01T16:54:36.298Z,13.85
2023-02-01T16:59:42.374Z,13.58
2023-02-01T17:04:48.736Z,9.66
2023-02-01T17:09:54.750Z,10.70
2023-02-01T17:15:00.986Z,11.27
2023-02-01T17:20:07.058Z,9.62
2023-02-01T17:25:13.162Z,10.89
2023-02-01T17:30:19.312Z,11.00
2023-02-01T17:35:26.074Z,12.47
2023-02-01T17:40:31.143Z,14.74
2023-02-01T17:45:37.563Z,11.39
2023-02-01T17:50:43.471Z,12.12
2023-02-01T17:55:49.700Z,11.08
2023-02-01T18:00:55.899Z,10.25
2023-02-01T18:06:02.065Z,12.45
2023-02-01T18:11:08.145Z,13.22
2023-02-01T18:16:14.337Z,10.06
2023-02-01T18:21:20.416Z,11.79
2023-02-01T18:26:26.723Z,14.42
2023-02-01T18:31:32.840Z,10.40
2023-02-01T18:36:39.775Z,15.09
2023-02-01T18:41:45.864Z,16.95
2023-02-01T18:46:52.073Z,12.79
2023-02-01T18:51:58.173Z,11.98
2023-02-01T18:57:04.472Z,15.44
2023-02-01T19:02:10.733Z,12.93
2023-02-01T19:07:16.903Z,11.50
2023-02-01T19:12:22.994Z,12.52
2023-02-01T19:17:29.284Z,12.88
2023-02-01T19:22:35.406Z,8.98
2023-02-01T19:27:41.673Z,13.15
2023-02-01T19:32:47.744Z,10.01
2023-02-01T19:37:54.109Z,10.87
2023-02-01T19:43:00.170Z,12.28
2023-02-01T19:48:06.351Z,9.73
2023-02-01T19:53:12.451Z,11.11
2023-02-01T19:58:18.752Z,12.62
2023-02-01T20:03:23.972Z,14.88
2023-02-01T20:08:30.614Z,14.69
2023-02-01T20:13:36.694Z,13.59
2023-02-01T20:18:42.924Z,12.45
2023-02-01T20:23:49.073Z,12.54
2023-02-01T20:28:56.246Z,10.98
2023-02-01T20:34:02.296Z,12.97
2023-02-01T20:39:08.465Z,9.82
2023-02-01T20:44:14.529Z,14.52
2023-02-01T20:49:20.714Z,13.42
2023-02-01T20:54:26.775Z,11.03
2023-02-01T20:59:33.134Z,13.53
2023-02-01T21:04:39.194Z,14.30
2023-02-01T21:09:45.427Z,12.84
2023-02-01T21:14:51.493Z,13.80
2023-02-01T21:19:57.665Z,11.53
2023-02-01T21:25:03.729Z,11.38
2023-02-01T21:30:09.878Z,11.99
2023-02-01T21:35:16.003Z,10.87
2023-02-01T21:40:22.215Z,12.13
2023-02-01T21:45:28.362Z,13.12
2023-02-01T21:50:34.621Z,14.08
2023-02-01T21:55:40.223Z,10.92
2023-02-01T22:00:46.483Z,9.48
2023-02-01T22:05:52.513Z,12.60
2023-02-01T22:10:58.716Z,10.64
2023-02-01T22:16:04.807Z,11.61
2023-02-01T22:21:11.049Z,10.56
2023-02-01T22:26:17.219Z,10.80
2023-02-01T22:31:23.482Z,10.42
2023-02-01T22:36:29.512Z,10.60
2023-02-01T22:41:35.726Z,12.84
2023-02-01T22:46:41.851Z,11.52
2023-02-01T22:51:48.021Z,12.44
2023-02-01T22:56:54.177Z,12.19
2023-02-01T23:02:00.318Z,10.10
2023-02-01T23:07:06.417Z,14.08
2023-02-01T23:12:12.647Z,12.11
2023-02-01T23:17:18.761Z,13.41
2023-02-01T23:22:25.323Z,12.06
2023-02-01T23:27:31.406Z,12.13
2023-02-01T23:32:37.643Z,15.00
2023-02-01T23:37:43.804Z,13.56
2023-02-01T23:42:49.966Z,12.99
2023-02-01T23:47:56.055Z,16.21
2023-02-01T23:53:02.284Z,11.83
2023-02-01T23:58:08.352Z,13.71
